sensor_id;sensor_type;location;lat;lon;timestamp;P1;durP1;ratioP1;P2;durP2;ratioP2
14052;SDS011;7101;51.600;7.310;2023-08-06T00:00:08;9.70;;;7.78;;
14052;SDS011;7101;51.600;7.310;2023-08-06T00:02:35;11.63;;;7.82;;
14052;SDS011;7101;51.600;7.310;2023-08-06T00:05:02;11.23;;;7.50;;
14052;SDS011;7101;51.600;7.310;2023-08-06T00:07:29;8.60;;;7.68;;
14052;SDS011;7101;51.600;7.310;2023-08-06T00:09:56;10.13;;;7.50;;
14052;SDS011;7101;51.600;7.310;2023-08-06T00:12:24;10.65;;;7.35;;
14052;SDS011;7101;51.600;7.310;2023-08-06T00:14:52;9.30;;;7.40;;
14052;SDS011;7101;51.600;7.310;2023-08-06T00:17:19;10.35;;;7.78;;
14052;SDS011;7101;51.600;7.310;2023-08-06T00:19:46;8.55;;;7.65;;
14052;SDS011;7101;51.600;7.310;2023-08-06T00:22:13;8.50;;;7.40;;
14052;SDS011;7101;51.600;7.310;2023-08-06T00:24:40;10.45;;;7.57;;
14052;SDS011;7101;51.600;7.310;2023-08-06T00:27:08;8.70;;;7.80;;
14052;SDS011;7101;51.600;7.310;2023-08-06T00:29:35;9.52;;;8.25;;
14052;SDS011;7101;51.600;7.310;2023-08-06T00:32:04;9.35;;;7.75;;
14052;SDS011;7101;51.600;7.310;2023-08-06T00:34:33;10.85;;;7.97;;
14052;SDS011;7101;51.600;7.310;2023-08-06T00:37:00;8.30;;;7.43;;
14052;SDS011;7101;51.600;7.310;2023-08-06T00:39:28;8.40;;;7.50;;
14052;SDS011;7101;51.600;7.310;2023-08-06T00:41:57;8.85;;;7.15;;
14052;SDS011;7101;51.600;7.310;2023-08-06T00:44:26;13.60;;;7.82;;
14052;SDS011;7101;51.600;7.310;2023-08-06T00:46:54;9.95;;;6.57;;
14052;SDS011;7101;51.600;7.310;2023-08-06T00:49:24;9.52;;;7.32;;
14052;SDS011;7101;51.600;7.310;2023-08-06T00:51:54;11.68;;;7.20;;
14052;SDS011;7101;51.600;7.310;2023-08-06T00:54:23;9.27;;;6.45;;
14052;SDS011;7101;51.600;7.310;2023-08-06T00:56:51;11.38;;;6.38;;
14052;SDS011;7101;51.600;7.310;2023-08-06T00:59:19;7.10;;;6.40;;
14052;SDS011;7101;51.600;7.310;2023-08-06T01:01:47;9.20;;;6.30;;
14052;SDS011;7101;51.600;7.310;2023-08-06T01:04:15;11.10;;;6.07;;
14052;SDS011;7101;51.600;7.310;2023-08-06T01:06:46;11.63;;;6.20;;
14052;SDS011;7101;51.600;7.310;2023-08-06T01:09:20;7.60;;;6.40;;
14052;SDS011;7101;51.600;7.310;2023-08-06T01:11:58;8.73;;;6.13;;
14052;SDS011;7101;51.600;7.310;2023-08-06T01:14:33;10.05;;;5.28;;
14052;SDS011;7101;51.600;7.310;2023-08-06T01:17:05;7.60;;;5.70;;
14052;SDS011;7101;51.600;7.310;2023-08-06T01:19:32;7.97;;;5.90;;
14052;SDS011;7101;51.600;7.310;2023-08-06T01:22:01;9.93;;;6.00;;
14052;SDS011;7101;51.600;7.310;2023-08-06T01:24:28;5.90;;;5.00;;
14052;SDS011;7101;51.600;7.310;2023-08-06T01:26:58;6.05;;;5.00;;
14052;SDS011;7101;51.600;7.310;2023-08-06T01:29:31;10.60;;;5.15;;
14052;SDS011;7101;51.600;7.310;2023-08-06T01:32:02;7.28;;;4.45;;
14052;SDS011;7101;51.600;7.310;2023-08-06T01:34:31;7.50;;;4.55;;
14052;SDS011;7101;51.600;7.310;2023-08-06T01:37:01;12.27;;;5.05;;
14052;SDS011;7101;51.600;7.310;2023-08-06T01:39:31;5.95;;;4.70;;
14052;SDS011;7101;51.600;7.310;2023-08-06T01:41:59;6.05;;;4.63;;
14052;SDS011;7101;51.600;7.310;2023-08-06T01:44:26;5.00;;;4.53;;
14052;SDS011;7101;51.600;7.310;2023-08-06T01:46:54;6.55;;;4.40;;
14052;SDS011;7101;51.600;7.310;2023-08-06T01:49:21;5.03;;;4.30;;
14052;SDS011;7101;51.600;7.310;2023-08-06T01:51:48;8.13;;;5.05;;
14052;SDS011;7101;51.600;7.310;2023-08-06T01:54:16;6.80;;;4.95;;
14052;SDS011;7101;51.600;7.310;2023-08-06T01:56:42;9.10;;;5.03;;
14052;SDS011;7101;51.600;7.310;2023-08-06T01:59:10;7.68;;;5.18;;
14052;SDS011;7101;51.600;7.310;2023-08-06T02:01:37;5.20;;;4.38;;
14052;SDS011;7101;51.600;7.310;2023-08-06T02:04:07;6.57;;;4.32;;
14052;SDS011;7101;51.600;7.310;2023-08-06T02:06:36;7.47;;;4.68;;
14052;SDS011;7101;51.600;7.310;2023-08-06T02:09:04;7.43;;;4.85;;
14052;SDS011;7101;51.600;7.310;2023-08-06T02:11:34;5.90;;;4.30;;
14052;SDS011;7101;51.600;7.310;2023-08-06T02:14:01;9.43;;;4.57;;
14052;SDS011;7101;51.600;7.310;2023-08-06T02:16:29;6.63;;;4.40;;
14052;SDS011;7101;51.600;7.310;2023-08-06T02:18:55;6.38;;;4.70;;
14052;SDS011;7101;51.600;7.310;2023-08-06T02:21:22;7.80;;;4.55;;
14052;SDS011;7101;51.600;7.310;2023-08-06T02:23:50;8.00;;;4.18;;
14052;SDS011;7101;51.600;7.310;2023-08-06T02:26:18;6.43;;;4.50;;
14052;SDS011;7101;51.600;7.310;2023-08-06T02:28:47;5.72;;;4.30;;
14052;SDS011;7101;51.600;7.310;2023-08-06T02:31:15;6.18;;;4.18;;
14052;SDS011;7101;51.600;7.310;2023-08-06T02:33:42;6.97;;;4.43;;
14052;SDS011;7101;51.600;7.310;2023-08-06T02:36:10;6.65;;;4.25;;
14052;SDS011;7101;51.600;7.310;2023-08-06T02:38:37;7.18;;;4.30;;
14052;SDS011;7101;51.600;7.310;2023-08-06T02:41:04;5.13;;;4.15;;
14052;SDS011;7101;51.600;7.310;2023-08-06T02:43:33;6.53;;;4.20;;
14052;SDS011;7101;51.600;7.310;2023-08-06T02:46:02;6.15;;;4.10;;
14052;SDS011;7101;51.600;7.310;2023-08-06T02:48:29;7.60;;;4.60;;
14052;SDS011;7101;51.600;7.310;2023-08-06T02:50:59;6.55;;;4.25;;
14052;SDS011;7101;51.600;7.310;2023-08-06T02:53:26;12.02;;;4.57;;
14052;SDS011;7101;51.600;7.310;2023-08-06T02:55:53;5.78;;;4.10;;
14052;SDS011;7101;51.600;7.310;2023-08-06T02:58:20;5.60;;;4.32;;
14052;SDS011;7101;51.600;7.310;2023-08-06T03:00:58;9.20;;;4.60;;
14052;SDS011;7101;51.600;7.310;2023-08-06T03:03:31;6.07;;;4.15;;
14052;SDS011;7101;51.600;7.310;2023-08-06T03:06:00;5.43;;;4.13;;
14052;SDS011;7101;51.600;7.310;2023-08-06T03:08:27;6.82;;;4.25;;
14052;SDS011;7101;51.600;7.310;2023-08-06T03:10:54;5.38;;;4.22;;
14052;SDS011;7101;51.600;7.310;2023-08-06T03:13:21;8.43;;;3.97;;
14052;SDS011;7101;51.600;7.310;2023-08-06T03:15:52;6.63;;;4.10;;
14052;SDS011;7101;51.600;7.310;2023-08-06T03:18:20;7.78;;;4.32;;
14052;SDS011;7101;51.600;7.310;2023-08-06T03:20:49;4.72;;;3.90;;
14052;SDS011;7101;51.600;7.310;2023-08-06T03:23:16;6.72;;;3.85;;
14052;SDS011;7101;51.600;7.310;2023-08-06T03:25:43;4.47;;;3.80;;
14052;SDS011;7101;51.600;7.310;2023-08-06T03:28:12;6.32;;;3.97;;
14052;SDS011;7101;51.600;7.310;2023-08-06T03:30:39;4.30;;;3.90;;
14052;SDS011;7101;51.600;7.310;2023-08-06T03:33:07;6.85;;;4.40;;
14052;SDS011;7101;51.600;7.310;2023-08-06T03:35:35;5.35;;;4.45;;
14052;SDS011;7101;51.600;7.310;2023-08-06T03:38:04;7.93;;;4.60;;
14052;SDS011;7101;51.600;7.310;2023-08-06T03:40:30;5.72;;;3.92;;
14052;SDS011;7101;51.600;7.310;2023-08-06T03:42:57;4.70;;;4.18;;
14052;SDS011;7101;51.600;7.310;2023-08-06T03:45:24;6.15;;;4.45;;
14052;SDS011;7101;51.600;7.310;2023-08-06T03:47:51;6.60;;;4.10;;
14052;SDS011;7101;51.600;7.310;2023-08-06T03:50:20;5.93;;;4.40;;
14052;SDS011;7101;51.600;7.310;2023-08-06T03:52:47;15.63;;;4.50;;
14052;SDS011;7101;51.600;7.310;2023-08-06T03:55:17;6.75;;;4.20;;
14052;SDS011;7101;51.600;7.310;2023-08-06T03:57:43;8.82;;;4.32;;
14052;SDS011;7101;51.600;7.310;2023-08-06T04:00:11;5.32;;;4.20;;
14052;SDS011;7101;51.600;7.310;2023-08-06T04:02:39;10.88;;;4.40;;
14052;SDS011;7101;51.600;7.310;2023-08-06T04:05:10;7.40;;;4.35;;
14052;SDS011;7101;51.600;7.310;2023-08-06T04:07:39;5.45;;;4.43;;
14052;SDS011;7101;51.600;7.310;2023-08-06T04:10:08;6.32;;;4.40;;
14052;SDS011;7101;51.600;7.310;2023-08-06T04:12:36;6.20;;;4.45;;
14052;SDS011;7101;51.600;7.310;2023-08-06T04:15:04;8.52;;;5.03;;
14052;SDS011;7101;51.600;7.310;2023-08-06T04:17:33;7.40;;;4.60;;
14052;SDS011;7101;51.600;7.310;2023-08-06T04:20:01;5.90;;;4.53;;
14052;SDS011;7101;51.600;7.310;2023-08-06T04:22:27;7.68;;;4.65;;
14052;SDS011;7101;51.600;7.310;2023-08-06T04:24:55;4.80;;;4.30;;
14052;SDS011;7101;51.600;7.310;2023-08-06T04:27:22;5.50;;;4.28;;
14052;SDS011;7101;51.600;7.310;2023-08-06T04:29:50;5.10;;;4.55;;
14052;SDS011;7101;51.600;7.310;2023-08-06T04:32:17;5.30;;;4.28;;
14052;SDS011;7101;51.600;7.310;2023-08-06T04:34:45;6.78;;;3.88;;
14052;SDS011;7101;51.600;7.310;2023-08-06T04:37:13;6.18;;;4.15;;
14052;SDS011;7101;51.600;7.310;2023-08-06T04:39:40;12.05;;;5.05;;
14052;SDS011;7101;51.600;7.310;2023-08-06T04:42:07;5.97;;;4.22;;
14052;SDS011;7101;51.600;7.310;2023-08-06T04:44:35;8.88;;;4.57;;
14052;SDS011;7101;51.600;7.310;2023-08-06T04:47:03;7.78;;;4.22;;
14052;SDS011;7101;51.600;7.310;2023-08-06T04:49:30;7.20;;;4.60;;
14052;SDS011;7101;51.600;7.310;2023-08-06T04:51:57;6.60;;;4.60;;
14052;SDS011;7101;51.600;7.310;2023-08-06T04:54:24;7.80;;;4.25;;
14052;SDS011;7101;51.600;7.310;2023-08-06T04:56:53;6.18;;;4.63;;
14052;SDS011;7101;51.600;7.310;2023-08-06T04:59:20;7.80;;;4.30;;
14052;SDS011;7101;51.600;7.310;2023-08-06T05:01:47;5.82;;;4.13;;
14052;SDS011;7101;51.600;7.310;2023-08-06T05:04:16;7.57;;;3.92;;
14052;SDS011;7101;51.600;7.310;2023-08-06T05:06:44;6.15;;;4.30;;
14052;SDS011;7101;51.600;7.310;2023-08-06T05:09:11;6.07;;;3.85;;
14052;SDS011;7101;51.600;7.310;2023-08-06T05:11:38;7.15;;;4.25;;
14052;SDS011;7101;51.600;7.310;2023-08-06T05:14:06;5.03;;;4.20;;
14052;SDS011;7101;51.600;7.310;2023-08-06T05:16:34;5.43;;;4.15;;
14052;SDS011;7101;51.600;7.310;2023-08-06T05:19:01;6.20;;;3.92;;
14052;SDS011;7101;51.600;7.310;2023-08-06T05:21:31;5.80;;;3.65;;
14052;SDS011;7101;51.600;7.310;2023-08-06T05:23:58;6.47;;;3.50;;
14052;SDS011;7101;51.600;7.310;2023-08-06T05:26:25;3.60;;;3.30;;
14052;SDS011;7101;51.600;7.310;2023-08-06T05:28:52;5.22;;;3.50;;
14052;SDS011;7101;51.600;7.310;2023-08-06T05:31:19;6.43;;;3.22;;
14052;SDS011;7101;51.600;7.310;2023-08-06T05:33:46;3.40;;;3.10;;
14052;SDS011;7101;51.600;7.310;2023-08-06T05:36:14;6.95;;;3.35;;
14052;SDS011;7101;51.600;7.310;2023-08-06T05:38:44;4.25;;;3.05;;
14052;SDS011;7101;51.600;7.310;2023-08-06T05:41:11;6.10;;;3.40;;
14052;SDS011;7101;51.600;7.310;2023-08-06T05:43:39;3.90;;;2.90;;
14052;SDS011;7101;51.600;7.310;2023-08-06T05:46:06;6.03;;;3.22;;
14052;SDS011;7101;51.600;7.310;2023-08-06T05:48:33;5.22;;;2.75;;
14052;SDS011;7101;51.600;7.310;2023-08-06T05:51:00;4.97;;;3.35;;
14052;SDS011;7101;51.600;7.310;2023-08-06T05:53:28;3.55;;;3.20;;
14052;SDS011;7101;51.600;7.310;2023-08-06T05:55:57;4.60;;;3.17;;
14052;SDS011;7101;51.600;7.310;2023-08-06T05:58:24;4.32;;;3.22;;
14052;SDS011;7101;51.600;7.310;2023-08-06T06:00:54;3.58;;;3.20;;
14052;SDS011;7101;51.600;7.310;2023-08-06T06:03:21;4.97;;;3.17;;
14052;SDS011;7101;51.600;7.310;2023-08-06T06:05:49;4.53;;;3.50;;
14052;SDS011;7101;51.600;7.310;2023-08-06T06:08:17;4.13;;;3.20;;
14052;SDS011;7101;51.600;7.310;2023-08-06T06:10:45;4.78;;;3.83;;
14052;SDS011;7101;51.600;7.310;2023-08-06T06:13:13;4.97;;;3.72;;
14052;SDS011;7101;51.600;7.310;2023-08-06T06:15:41;5.68;;;3.88;;
14052;SDS011;7101;51.600;7.310;2023-08-06T06:18:09;8.18;;;4.60;;
14052;SDS011;7101;51.600;7.310;2023-08-06T06:20:36;7.53;;;4.38;;
14052;SDS011;7101;51.600;7.310;2023-08-06T06:23:03;5.53;;;4.57;;
14052;SDS011;7101;51.600;7.310;2023-08-06T06:25:31;8.65;;;4.68;;
14052;SDS011;7101;51.600;7.310;2023-08-06T06:28:00;7.55;;;4.57;;
14052;SDS011;7101;51.600;7.310;2023-08-06T06:30:29;6.05;;;4.88;;
14052;SDS011;7101;51.600;7.310;2023-08-06T06:32:55;6.65;;;4.25;;
14052;SDS011;7101;51.600;7.310;2023-08-06T06:35:22;6.53;;;4.68;;
14052;SDS011;7101;51.600;7.310;2023-08-06T06:37:49;6.30;;;4.80;;
14052;SDS011;7101;51.600;7.310;2023-08-06T06:40:16;6.93;;;4.50;;
14052;SDS011;7101;51.600;7.310;2023-08-06T06:42:43;6.15;;;4.30;;
14052;SDS011;7101;51.600;7.310;2023-08-06T06:45:10;6.82;;;4.22;;
14052;SDS011;7101;51.600;7.310;2023-08-06T06:47:39;5.25;;;4.10;;
14052;SDS011;7101;51.600;7.310;2023-08-06T06:50:06;9.10;;;4.20;;
14052;SDS011;7101;51.600;7.310;2023-08-06T06:52:33;5.15;;;3.90;;
14052;SDS011;7101;51.600;7.310;2023-08-06T06:55:01;5.00;;;3.58;;
14052;SDS011;7101;51.600;7.310;2023-08-06T06:57:28;5.22;;;3.83;;
14052;SDS011;7101;51.600;7.310;2023-08-06T06:59:55;5.07;;;3.97;;
14052;SDS011;7101;51.600;7.310;2023-08-06T07:02:22;5.40;;;3.28;;
14052;SDS011;7101;51.600;7.310;2023-08-06T07:04:50;4.38;;;3.33;;
14052;SDS011;7101;51.600;7.310;2023-08-06T07:07:18;5.40;;;3.60;;
14052;SDS011;7101;51.600;7.310;2023-08-06T07:09:45;5.28;;;3.58;;
14052;SDS011;7101;51.600;7.310;2023-08-06T07:12:12;4.15;;;3.40;;
14052;SDS011;7101;51.600;7.310;2023-08-06T07:14:39;5.10;;;3.78;;
14052;SDS011;7101;51.600;7.310;2023-08-06T07:17:06;4.47;;;3.53;;
14052;SDS011;7101;51.600;7.310;2023-08-06T07:19:32;3.95;;;2.88;;
14052;SDS011;7101;51.600;7.310;2023-08-06T07:22:01;8.70;;;3.63;;
14052;SDS011;7101;51.600;7.310;2023-08-06T07:24:28;9.68;;;3.00;;
14052;SDS011;7101;51.600;7.310;2023-08-06T07:26:55;4.43;;;3.17;;
14052;SDS011;7101;51.600;7.310;2023-08-06T07:29:23;5.60;;;2.92;;
14052;SDS011;7101;51.600;7.310;2023-08-06T07:31:50;3.80;;;3.00;;
14052;SDS011;7101;51.600;7.310;2023-08-06T07:34:17;5.85;;;2.90;;
14052;SDS011;7101;51.600;7.310;2023-08-06T07:36:44;4.60;;;2.83;;
14052;SDS011;7101;51.600;7.310;2023-08-06T07:39:15;7.32;;;3.03;;
14052;SDS011;7101;51.600;7.310;2023-08-06T07:41:43;4.07;;;2.67;;
14052;SDS011;7101;51.600;7.310;2023-08-06T07:44:12;4.57;;;3.05;;
14052;SDS011;7101;51.600;7.310;2023-08-06T07:46:41;6.03;;;2.75;;
14052;SDS011;7101;51.600;7.310;2023-08-06T07:49:08;4.40;;;2.90;;
14052;SDS011;7101;51.600;7.310;2023-08-06T07:51:36;3.90;;;2.33;;
14052;SDS011;7101;51.600;7.310;2023-08-06T07:54:03;3.47;;;2.40;;
14052;SDS011;7101;51.600;7.310;2023-08-06T07:56:32;7.05;;;2.58;;
14052;SDS011;7101;51.600;7.310;2023-08-06T07:59:01;3.58;;;2.28;;
14052;SDS011;7101;51.600;7.310;2023-08-06T08:01:28;4.55;;;2.30;;
14052;SDS011;7101;51.600;7.310;2023-08-06T08:03:54;3.45;;;2.30;;
14052;SDS011;7101;51.600;7.310;2023-08-06T08:06:21;5.00;;;2.30;;
14052;SDS011;7101;51.600;7.310;2023-08-06T08:08:49;3.38;;;1.98;;
14052;SDS011;7101;51.600;7.310;2023-08-06T08:11:20;2.88;;;2.10;;
14052;SDS011;7101;51.600;7.310;2023-08-06T08:13:50;3.30;;;1.90;;
14052;SDS011;7101;51.600;7.310;2023-08-06T08:16:16;3.40;;;2.13;;
14052;SDS011;7101;51.600;7.310;2023-08-06T08:18:43;5.05;;;2.20;;
14052;SDS011;7101;51.600;7.310;2023-08-06T08:21:10;5.20;;;2.35;;
14052;SDS011;7101;51.600;7.310;2023-08-06T08:23:37;4.95;;;2.60;;
14052;SDS011;7101;51.600;7.310;2023-08-06T08:26:04;4.65;;;2.63;;
14052;SDS011;7101;51.600;7.310;2023-08-06T08:28:31;3.40;;;2.70;;
14052;SDS011;7101;51.600;7.310;2023-08-06T08:30:59;5.55;;;3.28;;
14052;SDS011;7101;51.600;7.310;2023-08-06T08:33:30;8.15;;;3.63;;
14052;SDS011;7101;51.600;7.310;2023-08-06T08:36:03;4.80;;;3.25;;
14052;SDS011;7101;51.600;7.310;2023-08-06T08:38:31;5.05;;;2.90;;
14052;SDS011;7101;51.600;7.310;2023-08-06T08:40:58;7.00;;;3.10;;
14052;SDS011;7101;51.600;7.310;2023-08-06T08:43:26;3.90;;;2.80;;
14052;SDS011;7101;51.600;7.310;2023-08-06T08:46:01;5.47;;;3.50;;
14052;SDS011;7101;51.600;7.310;2023-08-06T08:48:30;4.57;;;3.03;;
14052;SDS011;7101;51.600;7.310;2023-08-06T08:50:58;6.63;;;3.38;;
14052;SDS011;7101;51.600;7.310;2023-08-06T08:53:26;5.70;;;3.05;;
14052;SDS011;7101;51.600;7.310;2023-08-06T08:55:53;4.53;;;3.20;;
14052;SDS011;7101;51.600;7.310;2023-08-06T08:58:21;3.72;;;3.03;;
14052;SDS011;7101;51.600;7.310;2023-08-06T09:00:49;5.47;;;3.00;;
14052;SDS011;7101;51.600;7.310;2023-08-06T09:03:20;4.88;;;3.10;;
14052;SDS011;7101;51.600;7.310;2023-08-06T09:05:49;4.50;;;3.13;;
14052;SDS011;7101;51.600;7.310;2023-08-06T09:08:18;3.10;;;2.53;;
14052;SDS011;7101;51.600;7.310;2023-08-06T09:10:53;3.92;;;2.63;;
14052;SDS011;7101;51.600;7.310;2023-08-06T09:13:24;3.92;;;2.95;;
14052;SDS011;7101;51.600;7.310;2023-08-06T09:15:52;4.00;;;2.50;;
14052;SDS011;7101;51.600;7.310;2023-08-06T09:18:26;4.10;;;2.08;;
14052;SDS011;7101;51.600;7.310;2023-08-06T09:20:55;3.13;;;2.00;;
14052;SDS011;7101;51.600;7.310;2023-08-06T09:23:26;2.65;;;1.80;;
14052;SDS011;7101;51.600;7.310;2023-08-06T09:25:54;4.05;;;1.90;;
14052;SDS011;7101;51.600;7.310;2023-08-06T09:28:23;4.25;;;1.90;;
14052;SDS011;7101;51.600;7.310;2023-08-06T09:30:52;3.83;;;3.00;;
14052;SDS011;7101;51.600;7.310;2023-08-06T09:33:22;4.53;;;3.38;;
14052;SDS011;7101;51.600;7.310;2023-08-06T09:35:50;4.43;;;3.53;;
14052;SDS011;7101;51.600;7.310;2023-08-06T09:38:20;4.18;;;2.67;;
14052;SDS011;7101;51.600;7.310;2023-08-06T09:40:47;6.70;;;3.40;;
14052;SDS011;7101;51.600;7.310;2023-08-06T09:43:18;6.57;;;3.45;;
14052;SDS011;7101;51.600;7.310;2023-08-06T09:45:49;2.70;;;2.20;;
14052;SDS011;7101;51.600;7.310;2023-08-06T09:48:16;2.50;;;2.00;;
14052;SDS011;7101;51.600;7.310;2023-08-06T09:50:43;4.60;;;2.60;;
14052;SDS011;7101;51.600;7.310;2023-08-06T09:53:17;4.18;;;2.65;;
14052;SDS011;7101;51.600;7.310;2023-08-06T09:55:46;3.83;;;2.45;;
14052;SDS011;7101;51.600;7.310;2023-08-06T09:58:15;3.00;;;2.40;;
14052;SDS011;7101;51.600;7.310;2023-08-06T10:00:43;3.65;;;2.42;;
14052;SDS011;7101;51.600;7.310;2023-08-06T10:03:11;3.50;;;2.72;;
14052;SDS011;7101;51.600;7.310;2023-08-06T10:05:39;4.75;;;2.95;;
14052;SDS011;7101;51.600;7.310;2023-08-06T10:08:07;5.00;;;2.88;;
14052;SDS011;7101;51.600;7.310;2023-08-06T10:10:35;4.15;;;2.85;;
14052;SDS011;7101;51.600;7.310;2023-08-06T10:13:04;4.45;;;2.80;;
14052;SDS011;7101;51.600;7.310;2023-08-06T10:15:34;3.72;;;2.53;;
14052;SDS011;7101;51.600;7.310;2023-08-06T10:18:03;5.03;;;2.35;;
14052;SDS011;7101;51.600;7.310;2023-08-06T10:20:33;3.20;;;2.38;;
14052;SDS011;7101;51.600;7.310;2023-08-06T10:23:01;5.88;;;2.50;;
14052;SDS011;7101;51.600;7.310;2023-08-06T10:25:32;3.60;;;2.30;;
14052;SDS011;7101;51.600;7.310;2023-08-06T10:28:01;3.08;;;2.20;;
14052;SDS011;7101;51.600;7.310;2023-08-06T10:30:36;3.67;;;2.15;;
14052;SDS011;7101;51.600;7.310;2023-08-06T10:33:07;2.83;;;2.10;;
14052;SDS011;7101;51.600;7.310;2023-08-06T10:35:35;3.92;;;2.60;;
14052;SDS011;7101;51.600;7.310;2023-08-06T10:38:03;2.83;;;2.08;;
14052;SDS011;7101;51.600;7.310;2023-08-06T10:40:31;3.70;;;2.33;;
14052;SDS011;7101;51.600;7.310;2023-08-06T10:43:01;4.20;;;2.33;;
14052;SDS011;7101;51.600;7.310;2023-08-06T10:45:30;3.55;;;2.10;;
14052;SDS011;7101;51.600;7.310;2023-08-06T10:48:01;3.83;;;2.05;;
14052;SDS011;7101;51.600;7.310;2023-08-06T10:50:28;5.97;;;2.10;;
14052;SDS011;7101;51.600;7.310;2023-08-06T10:52:57;3.10;;;2.38;;
14052;SDS011;7101;51.600;7.310;2023-08-06T10:55:31;3.80;;;2.25;;
14052;SDS011;7101;51.600;7.310;2023-08-06T10:57:58;2.65;;;2.20;;
14052;SDS011;7101;51.600;7.310;2023-08-06T11:00:28;3.83;;;2.00;;
14052;SDS011;7101;51.600;7.310;2023-08-06T11:02:55;2.30;;;2.00;;
14052;SDS011;7101;51.600;7.310;2023-08-06T11:05:22;4.38;;;2.15;;
14052;SDS011;7101;51.600;7.310;2023-08-06T11:07:51;2.65;;;1.98;;
14052;SDS011;7101;51.600;7.310;2023-08-06T11:10:19;2.83;;;1.88;;
14052;SDS011;7101;51.600;7.310;2023-08-06T11:12:46;2.38;;;2.00;;
14052;SDS011;7101;51.600;7.310;2023-08-06T11:15:16;3.35;;;1.98;;
14052;SDS011;7101;51.600;7.310;2023-08-06T11:17:44;2.85;;;2.10;;
14052;SDS011;7101;51.600;7.310;2023-08-06T11:20:12;3.92;;;2.10;;
14052;SDS011;7101;51.600;7.310;2023-08-06T11:22:39;3.88;;;1.98;;
14052;SDS011;7101;51.600;7.310;2023-08-06T11:25:07;2.38;;;1.90;;
14052;SDS011;7101;51.600;7.310;2023-08-06T11:27:34;3.05;;;1.88;;
14052;SDS011;7101;51.600;7.310;2023-08-06T11:30:01;3.13;;;1.70;;
14052;SDS011;7101;51.600;7.310;2023-08-06T11:32:32;4.97;;;1.95;;
14052;SDS011;7101;51.600;7.310;2023-08-06T11:35:09;3.17;;;1.60;;
14052;SDS011;7101;51.600;7.310;2023-08-06T11:37:38;2.20;;;1.63;;
14052;SDS011;7101;51.600;7.310;2023-08-06T11:40:09;7.30;;;6.63;;
14052;SDS011;7101;51.600;7.310;2023-08-06T11:42:37;2.33;;;1.80;;
14052;SDS011;7101;51.600;7.310;2023-08-06T11:45:04;3.30;;;2.10;;
14052;SDS011;7101;51.600;7.310;2023-08-06T11:47:37;3.20;;;2.00;;
14052;SDS011;7101;51.600;7.310;2023-08-06T11:50:05;2.97;;;1.90;;
14052;SDS011;7101;51.600;7.310;2023-08-06T11:52:33;4.22;;;2.15;;
14052;SDS011;7101;51.600;7.310;2023-08-06T11:55:00;4.47;;;2.30;;
14052;SDS011;7101;51.600;7.310;2023-08-06T11:57:31;2.33;;;2.05;;
14052;SDS011;7101;51.600;7.310;2023-08-06T12:00:03;9.80;;;3.67;;
14052;SDS011;7101;51.600;7.310;2023-08-06T12:02:31;11.25;;;4.18;;
14052;SDS011;7101;51.600;7.310;2023-08-06T12:05:04;10.10;;;3.83;;
14052;SDS011;7101;51.600;7.310;2023-08-06T12:07:36;7.85;;;4.05;;
14052;SDS011;7101;51.600;7.310;2023-08-06T12:10:05;4.35;;;3.10;;
14052;SDS011;7101;51.600;7.310;2023-08-06T12:12:32;4.47;;;3.85;;
14052;SDS011;7101;51.600;7.310;2023-08-06T12:15:01;6.80;;;4.65;;
14052;SDS011;7101;51.600;7.310;2023-08-06T12:17:28;5.22;;;3.97;;
14052;SDS011;7101;51.600;7.310;2023-08-06T12:19:55;5.93;;;4.05;;
14052;SDS011;7101;51.600;7.310;2023-08-06T12:22:25;5.18;;;4.30;;
14052;SDS011;7101;51.600;7.310;2023-08-06T12:24:52;5.70;;;5.10;;
14052;SDS011;7101;51.600;7.310;2023-08-06T12:27:19;7.65;;;5.82;;
14052;SDS011;7101;51.600;7.310;2023-08-06T12:29:47;8.30;;;6.90;;
14052;SDS011;7101;51.600;7.310;2023-08-06T12:32:14;9.32;;;8.35;;
14052;SDS011;7101;51.600;7.310;2023-08-06T12:34:42;9.70;;;8.77;;
14052;SDS011;7101;51.600;7.310;2023-08-06T12:37:09;10.82;;;8.93;;
14052;SDS011;7101;51.600;7.310;2023-08-06T12:39:38;8.40;;;7.60;;
14052;SDS011;7101;51.600;7.310;2023-08-06T12:42:05;9.10;;;7.78;;
14052;SDS011;7101;51.600;7.310;2023-08-06T12:44:33;7.75;;;6.82;;
14052;SDS011;7101;51.600;7.310;2023-08-06T12:47:00;7.25;;;5.72;;
14052;SDS011;7101;51.600;7.310;2023-08-06T12:49:27;6.07;;;5.57;;
14052;SDS011;7101;51.600;7.310;2023-08-06T12:51:56;6.07;;;4.30;;
14052;SDS011;7101;51.600;7.310;2023-08-06T12:54:25;3.83;;;3.47;;
14052;SDS011;7101;51.600;7.310;2023-08-06T12:56:54;5.93;;;3.47;;
14052;SDS011;7101;51.600;7.310;2023-08-06T12:59:22;4.05;;;3.38;;
14052;SDS011;7101;51.600;7.310;2023-08-06T13:01:50;3.40;;;3.10;;
14052;SDS011;7101;51.600;7.310;2023-08-06T13:04:17;3.75;;;2.83;;
14052;SDS011;7101;51.600;7.310;2023-08-06T13:06:43;3.80;;;2.40;;
14052;SDS011;7101;51.600;7.310;2023-08-06T13:09:10;2.50;;;2.30;;
14052;SDS011;7101;51.600;7.310;2023-08-06T13:11:38;2.55;;;1.80;;
14052;SDS011;7101;51.600;7.310;2023-08-06T13:14:06;1.67;;;1.50;;
14052;SDS011;7101;51.600;7.310;2023-08-06T13:16:34;1.70;;;1.27;;
14052;SDS011;7101;51.600;7.310;2023-08-06T13:19:03;1.10;;;0.90;;
14052;SDS011;7101;51.600;7.310;2023-08-06T13:21:33;2.63;;;0.90;;
14052;SDS011;7101;51.600;7.310;2023-08-06T13:24:01;3.83;;;0.90;;
14052;SDS011;7101;51.600;7.310;2023-08-06T13:26:28;1.05;;;0.77;;
14052;SDS011;7101;51.600;7.310;2023-08-06T13:28:56;1.10;;;0.85;;
14052;SDS011;7101;51.600;7.310;2023-08-06T13:31:25;2.30;;;1.00;;
14052;SDS011;7101;51.600;7.310;2023-08-06T13:33:53;1.20;;;0.93;;
14052;SDS011;7101;51.600;7.310;2023-08-06T13:36:23;2.53;;;0.93;;
14052;SDS011;7101;51.600;7.310;2023-08-06T13:38:51;1.77;;;0.98;;
14052;SDS011;7101;51.600;7.310;2023-08-06T13:41:18;2.75;;;1.10;;
14052;SDS011;7101;51.600;7.310;2023-08-06T13:43:45;4.97;;;1.40;;
14052;SDS011;7101;51.600;7.310;2023-08-06T13:46:13;6.45;;;1.60;;
14052;SDS011;7101;51.600;7.310;2023-08-06T13:48:43;7.90;;;1.35;;
14052;SDS011;7101;51.600;7.310;2023-08-06T13:51:12;2.13;;;1.00;;
14052;SDS011;7101;51.600;7.310;2023-08-06T13:53:41;1.85;;;1.00;;
14052;SDS011;7101;51.600;7.310;2023-08-06T13:56:09;3.15;;;1.25;;
14052;SDS011;7101;51.600;7.310;2023-08-06T13:58:37;3.05;;;1.17;;
14052;SDS011;7101;51.600;7.310;2023-08-06T14:01:05;1.50;;;1.00;;
14052;SDS011;7101;51.600;7.310;2023-08-06T14:03:32;2.22;;;1.02;;
14052;SDS011;7101;51.600;7.310;2023-08-06T14:06:00;1.45;;;1.10;;
14052;SDS011;7101;51.600;7.310;2023-08-06T14:08:27;1.08;;;0.98;;
14052;SDS011;7101;51.600;7.310;2023-08-06T14:10:55;1.35;;;0.85;;
14052;SDS011;7101;51.600;7.310;2023-08-06T14:13:22;1.10;;;1.00;;
14052;SDS011;7101;51.600;7.310;2023-08-06T14:15:51;1.65;;;0.90;;
14052;SDS011;7101;51.600;7.310;2023-08-06T14:18:19;2.10;;;1.30;;
14052;SDS011;7101;51.600;7.310;2023-08-06T14:20:46;1.48;;;1.00;;
14052;SDS011;7101;51.600;7.310;2023-08-06T14:23:20;1.35;;;0.98;;
14052;SDS011;7101;51.600;7.310;2023-08-06T14:25:46;3.80;;;1.20;;
14052;SDS011;7101;51.600;7.310;2023-08-06T14:28:14;6.57;;;1.02;;
14052;SDS011;7101;51.600;7.310;2023-08-06T14:30:41;1.95;;;1.30;;
14052;SDS011;7101;51.600;7.310;2023-08-06T14:33:09;1.73;;;1.00;;
14052;SDS011;7101;51.600;7.310;2023-08-06T14:35:36;1.52;;;1.10;;
14052;SDS011;7101;51.600;7.310;2023-08-06T14:38:03;1.67;;;1.15;;
14052;SDS011;7101;51.600;7.310;2023-08-06T14:40:31;2.22;;;1.05;;
14052;SDS011;7101;51.600;7.310;2023-08-06T14:43:02;1.23;;;1.13;;
14052;SDS011;7101;51.600;7.310;2023-08-06T14:45:29;1.20;;;1.02;;
14052;SDS011;7101;51.600;7.310;2023-08-06T14:47:56;1.10;;;1.00;;
14052;SDS011;7101;51.600;7.310;2023-08-06T14:50:23;1.13;;;0.95;;
14052;SDS011;7101;51.600;7.310;2023-08-06T14:52:51;2.20;;;1.00;;
14052;SDS011;7101;51.600;7.310;2023-08-06T14:55:22;2.00;;;1.10;;
14052;SDS011;7101;51.600;7.310;2023-08-06T14:57:52;1.60;;;1.00;;
14052;SDS011;7101;51.600;7.310;2023-08-06T15:00:19;1.80;;;1.23;;
14052;SDS011;7101;51.600;7.310;2023-08-06T15:02:47;1.95;;;1.00;;
14052;SDS011;7101;51.600;7.310;2023-08-06T15:05:15;1.90;;;1.20;;